sensor_id;sensor_type;location;lat;lon;timestamp;P1;durP1;ratioP1;P2;durP2;ratioP2
54384;SDS011;40284;52.878;5.998;2022-07-23T00:00:32;21.10;;;10.90;;
54384;SDS011;40284;52.878;5.998;2022-07-23T00:02:58;18.92;;;12.20;;
54384;SDS011;40284;52.878;5.998;2022-07-23T00:05:24;13.68;;;9.45;;
54384;SDS011;40284;52.878;5.998;2022-07-23T00:07:50;14.30;;;9.07;;
54384;SDS011;40284;52.878;5.998;2022-07-23T00:10:16;13.95;;;8.13;;
54384;SDS011;40284;52.878;5.998;2022-07-23T00:12:42;19.90;;;10.30;;
54384;SDS011;40284;52.878;5.998;2022-07-23T00:15:09;27.92;;;13.07;;
54384;SDS011;40284;52.878;5.998;2022-07-23T00:17:35;22.05;;;13.35;;
54384;SDS011;40284;52.878;5.998;2022-07-23T00:20:01;14.25;;;9.20;;
54384;SDS011;40284;52.878;5.998;2022-07-23T00:22:28;11.23;;;7.60;;
54384;SDS011;40284;52.878;5.998;2022-07-23T00:24:54;12.02;;;8.30;;
54384;SDS011;40284;52.878;5.998;2022-07-23T00:27:20;14.82;;;6.35;;
54384;SDS011;40284;52.878;5.998;2022-07-23T00:29:46;10.90;;;5.68;;
54384;SDS011;40284;52.878;5.998;2022-07-23T00:32:12;8.13;;;6.30;;
54384;SDS011;40284;52.878;5.998;2022-07-23T00:34:38;10.20;;;6.28;;
54384;SDS011;40284;52.878;5.998;2022-07-23T00:37:04;8.95;;;5.75;;
54384;SDS011;40284;52.878;5.998;2022-07-23T00:39:30;7.00;;;6.10;;
54384;SDS011;40284;52.878;5.998;2022-07-23T00:41:57;9.98;;;5.78;;
54384;SDS011;40284;52.878;5.998;2022-07-23T00:44:24;8.60;;;5.57;;
54384;SDS011;40284;52.878;5.998;2022-07-23T00:46:54;7.30;;;5.78;;
54384;SDS011;40284;52.878;5.998;2022-07-23T00:49:21;10.85;;;6.57;;
54384;SDS011;40284;52.878;5.998;2022-07-23T00:51:47;10.38;;;5.95;;
54384;SDS011;40284;52.878;5.998;2022-07-23T00:54:14;9.55;;;6.32;;
54384;SDS011;40284;52.878;5.998;2022-07-23T00:56:41;12.07;;;6.35;;
54384;SDS011;40284;52.878;5.998;2022-07-23T00:59:08;8.90;;;5.93;;
54384;SDS011;40284;52.878;5.998;2022-07-23T01:01:35;9.85;;;6.32;;
54384;SDS011;40284;52.878;5.998;2022-07-23T01:04:01;9.13;;;5.78;;
54384;SDS011;40284;52.878;5.998;2022-07-23T01:06:27;7.55;;;4.72;;
54384;SDS011;40284;52.878;5.998;2022-07-23T01:08:53;8.43;;;5.57;;
54384;SDS011;40284;52.878;5.998;2022-07-23T01:11:21;9.40;;;6.25;;
54384;SDS011;40284;52.878;5.998;2022-07-23T01:13:48;7.78;;;5.22;;
54384;SDS011;40284;52.878;5.998;2022-07-23T01:16:14;7.57;;;6.15;;
54384;SDS011;40284;52.878;5.998;2022-07-23T01:18:40;8.80;;;5.78;;
54384;SDS011;40284;52.878;5.998;2022-07-23T01:21:06;9.18;;;5.80;;
54384;SDS011;40284;52.878;5.998;2022-07-23T01:23:34;8.50;;;5.70;;
54384;SDS011;40284;52.878;5.998;2022-07-23T01:26:00;10.93;;;7.32;;
54384;SDS011;40284;52.878;5.998;2022-07-23T01:28:26;11.88;;;7.50;;
54384;SDS011;40284;52.878;5.998;2022-07-23T01:30:52;22.15;;;11.82;;
54384;SDS011;40284;52.878;5.998;2022-07-23T01:33:18;24.25;;;15.07;;
54384;SDS011;40284;52.878;5.998;2022-07-23T01:35:44;26.27;;;15.77;;
54384;SDS011;40284;52.878;5.998;2022-07-23T01:38:10;25.60;;;16.02;;
54384;SDS011;40284;52.878;5.998;2022-07-23T01:40:36;24.48;;;14.27;;
54384;SDS011;40284;52.878;5.998;2022-07-23T01:43:02;22.92;;;13.07;;
54384;SDS011;40284;52.878;5.998;2022-07-23T01:45:28;18.52;;;9.80;;
54384;SDS011;40284;52.878;5.998;2022-07-23T01:47:54;12.68;;;6.72;;
54384;SDS011;40284;52.878;5.998;2022-07-23T01:50:20;10.95;;;7.35;;
54384;SDS011;40284;52.878;5.998;2022-07-23T01:52:47;16.20;;;10.60;;
54384;SDS011;40284;52.878;5.998;2022-07-23T01:55:13;21.58;;;13.32;;
54384;SDS011;40284;52.878;5.998;2022-07-23T01:57:39;21.80;;;15.85;;
54384;SDS011;40284;52.878;5.998;2022-07-23T02:00:05;24.75;;;18.40;;
54384;SDS011;40284;52.878;5.998;2022-07-23T02:02:31;22.67;;;14.90;;
54384;SDS011;40284;52.878;5.998;2022-07-23T02:04:57;18.85;;;13.23;;
54384;SDS011;40284;52.878;5.998;2022-07-23T02:07:23;15.85;;;12.20;;
54384;SDS011;40284;52.878;5.998;2022-07-23T02:09:49;17.77;;;9.20;;
54384;SDS011;40284;52.878;5.998;2022-07-23T02:12:15;14.23;;;9.77;;
54384;SDS011;40284;52.878;5.998;2022-07-23T02:14:41;11.70;;;7.65;;
54384;SDS011;40284;52.878;5.998;2022-07-23T02:17:07;12.63;;;7.00;;
54384;SDS011;40284;52.878;5.998;2022-07-23T02:19:33;12.30;;;6.72;;
54384;SDS011;40284;52.878;5.998;2022-07-23T02:21:59;10.82;;;7.25;;
54384;SDS011;40284;52.878;5.998;2022-07-23T02:24:25;13.80;;;6.40;;
54384;SDS011;40284;52.878;5.998;2022-07-23T02:26:51;10.40;;;6.50;;
54384;SDS011;40284;52.878;5.998;2022-07-23T02:29:17;8.02;;;6.63;;
54384;SDS011;40284;52.878;5.998;2022-07-23T02:31:43;9.85;;;6.25;;
54384;SDS011;40284;52.878;5.998;2022-07-23T02:34:10;8.88;;;5.75;;
54384;SDS011;40284;52.878;5.998;2022-07-23T02:36:37;11.20;;;7.40;;
54384;SDS011;40284;52.878;5.998;2022-07-23T02:39:03;10.48;;;6.30;;
54384;SDS011;40284;52.878;5.998;2022-07-23T02:41:29;9.63;;;5.80;;
54384;SDS011;40284;52.878;5.998;2022-07-23T02:43:55;10.88;;;5.93;;
54384;SDS011;40284;52.878;5.998;2022-07-23T02:46:21;9.60;;;5.38;;
54384;SDS011;40284;52.878;5.998;2022-07-23T02:48:47;9.73;;;6.38;;
54384;SDS011;40284;52.878;5.998;2022-07-23T02:51:14;6.85;;;5.45;;
54384;SDS011;40284;52.878;5.998;2022-07-23T02:53:40;9.38;;;5.65;;
54384;SDS011;40284;52.878;5.998;2022-07-23T02:56:06;6.47;;;5.15;;
54384;SDS011;40284;52.878;5.998;2022-07-23T02:58:32;7.75;;;5.35;;
54384;SDS011;40284;52.878;5.998;2022-07-23T03:00:58;12.02;;;5.35;;
54384;SDS011;40284;52.878;5.998;2022-07-23T03:03:24;6.30;;;5.05;;
54384;SDS011;40284;52.878;5.998;2022-07-23T03:05:50;7.32;;;5.32;;
54384;SDS011;40284;52.878;5.998;2022-07-23T03:08:16;8.55;;;4.70;;
54384;SDS011;40284;52.878;5.998;2022-07-23T03:10:43;7.07;;;5.18;;
54384;SDS011;40284;52.878;5.998;2022-07-23T03:13:09;7.25;;;5.50;;
54384;SDS011;40284;52.878;5.998;2022-07-23T03:15:35;7.97;;;6.15;;
54384;SDS011;40284;52.878;5.998;2022-07-23T03:18:01;6.63;;;5.07;;
54384;SDS011;40284;52.878;5.998;2022-07-23T03:20:27;5.53;;;4.40;;
54384;SDS011;40284;52.878;5.998;2022-07-23T03:22:53;6.63;;;5.30;;
54384;SDS011;40284;52.878;5.998;2022-07-23T03:25:19;6.75;;;5.15;;
54384;SDS011;40284;52.878;5.998;2022-07-23T03:27:45;8.18;;;5.93;;
54384;SDS011;40284;52.878;5.998;2022-07-23T03:30:11;13.65;;;8.27;;
54384;SDS011;40284;52.878;5.998;2022-07-23T03:32:37;12.70;;;7.25;;
54384;SDS011;40284;52.878;5.998;2022-07-23T03:35:04;13.55;;;6.00;;
54384;SDS011;40284;52.878;5.998;2022-07-23T03:37:30;8.00;;;5.47;;
54384;SDS011;40284;52.878;5.998;2022-07-23T03:39:56;9.35;;;6.13;;
54384;SDS011;40284;52.878;5.998;2022-07-23T03:42:22;9.27;;;6.03;;
54384;SDS011;40284;52.878;5.998;2022-07-23T03:44:48;9.48;;;5.70;;
54384;SDS011;40284;52.878;5.998;2022-07-23T03:47:14;6.35;;;4.93;;
54384;SDS011;40284;52.878;5.998;2022-07-23T03:49:42;9.30;;;5.82;;
54384;SDS011;40284;52.878;5.998;2022-07-23T03:52:08;8.25;;;6.05;;
54384;SDS011;40284;52.878;5.998;2022-07-23T03:54:34;6.40;;;5.60;;
54384;SDS011;40284;52.878;5.998;2022-07-23T03:57:00;7.75;;;5.93;;
54384;SDS011;40284;52.878;5.998;2022-07-23T03:59:26;11.15;;;6.15;;
54384;SDS011;40284;52.878;5.998;2022-07-23T04:01:52;7.95;;;5.25;;
54384;SDS011;40284;52.878;5.998;2022-07-23T04:04:18;7.82;;;5.88;;
54384;SDS011;40284;52.878;5.998;2022-07-23T04:06:44;7.00;;;5.60;;
54384;SDS011;40284;52.878;5.998;2022-07-23T04:09:10;8.45;;;6.00;;
54384;SDS011;40284;52.878;5.998;2022-07-23T04:11:36;8.95;;;5.60;;
54384;SDS011;40284;52.878;5.998;2022-07-23T04:14:02;8.73;;;5.13;;
54384;SDS011;40284;52.878;5.998;2022-07-23T04:16:28;7.63;;;5.72;;
54384;SDS011;40284;52.878;5.998;2022-07-23T04:18:56;8.50;;;5.47;;
54384;SDS011;40284;52.878;5.998;2022-07-23T04:21:23;6.88;;;5.75;;
54384;SDS011;40284;52.878;5.998;2022-07-23T04:23:49;6.53;;;5.30;;
54384;SDS011;40284;52.878;5.998;2022-07-23T04:26:15;7.22;;;5.45;;
54384;SDS011;40284;52.878;5.998;2022-07-23T04:28:41;9.60;;;5.50;;
54384;SDS011;40284;52.878;5.998;2022-07-23T04:31:08;7.68;;;5.25;;
54384;SDS011;40284;52.878;5.998;2022-07-23T04:33:34;8.77;;;5.25;;
54384;SDS011;40284;52.878;5.998;2022-07-23T04:36:00;10.30;;;5.20;;
54384;SDS011;40284;52.878;5.998;2022-07-23T04:38:26;6.75;;;4.60;;
54384;SDS011;40284;52.878;5.998;2022-07-23T04:40:52;8.68;;;4.78;;
54384;SDS011;40284;52.878;5.998;2022-07-23T04:43:18;13.23;;;6.53;;
54384;SDS011;40284;52.878;5.998;2022-07-23T04:45:44;8.00;;;4.95;;
54384;SDS011;40284;52.878;5.998;2022-07-23T04:48:10;6.13;;;4.70;;
54384;SDS011;40284;52.878;5.998;2022-07-23T04:50:36;8.20;;;5.13;;
54384;SDS011;40284;52.878;5.998;2022-07-23T04:53:03;6.25;;;4.82;;
54384;SDS011;40284;52.878;5.998;2022-07-23T04:55:29;7.50;;;5.13;;
54384;SDS011;40284;52.878;5.998;2022-07-23T04:57:55;7.80;;;4.70;;
54384;SDS011;40284;52.878;5.998;2022-07-23T05:00:21;6.90;;;4.95;;
54384;SDS011;40284;52.878;5.998;2022-07-23T05:02:47;8.90;;;5.25;;
54384;SDS011;40284;52.878;5.998;2022-07-23T05:05:13;7.95;;;5.40;;
54384;SDS011;40284;52.878;5.998;2022-07-23T05:07:40;5.82;;;4.82;;
54384;SDS011;40284;52.878;5.998;2022-07-23T05:10:06;7.15;;;4.55;;
54384;SDS011;40284;52.878;5.998;2022-07-23T05:12:32;7.43;;;4.45;;
54384;SDS011;40284;52.878;5.998;2022-07-23T05:14:58;7.20;;;4.72;;
54384;SDS011;40284;52.878;5.998;2022-07-23T05:17:24;9.93;;;5.55;;
54384;SDS011;40284;52.878;5.998;2022-07-23T05:19:50;5.53;;;4.55;;
54384;SDS011;40284;52.878;5.998;2022-07-23T05:22:16;6.65;;;5.20;;
54384;SDS011;40284;52.878;5.998;2022-07-23T05:24:42;8.32;;;4.63;;
54384;SDS011;40284;52.878;5.998;2022-07-23T05:27:08;6.00;;;5.07;;
54384;SDS011;40284;52.878;5.998;2022-07-23T05:29:35;9.95;;;4.38;;
54384;SDS011;40284;52.878;5.998;2022-07-23T05:32:01;7.07;;;4.55;;
54384;SDS011;40284;52.878;5.998;2022-07-23T05:34:27;8.95;;;5.13;;
54384;SDS011;40284;52.878;5.998;2022-07-23T05:36:53;7.10;;;4.72;;
54384;SDS011;40284;52.878;5.998;2022-07-23T05:39:19;8.20;;;4.85;;
54384;SDS011;40284;52.878;5.998;2022-07-23T05:41:45;7.47;;;4.57;;
54384;SDS011;40284;52.878;5.998;2022-07-23T05:44:11;7.97;;;4.68;;
54384;SDS011;40284;52.878;5.998;2022-07-23T05:46:37;8.10;;;4.25;;
54384;SDS011;40284;52.878;5.998;2022-07-23T05:49:03;5.13;;;3.78;;
54384;SDS011;40284;52.878;5.998;2022-07-23T05:51:29;5.05;;;4.05;;
54384;SDS011;40284;52.878;5.998;2022-07-23T05:53:55;6.15;;;4.70;;
54384;SDS011;40284;52.878;5.998;2022-07-23T05:56:21;5.20;;;3.90;;
54384;SDS011;40284;52.878;5.998;2022-07-23T05:58:47;5.78;;;3.50;;
54384;SDS011;40284;52.878;5.998;2022-07-23T06:01:14;6.38;;;3.70;;
54384;SDS011;40284;52.878;5.998;2022-07-23T06:03:40;12.65;;;3.60;;
54384;SDS011;40284;52.878;5.998;2022-07-23T06:06:06;4.88;;;3.17;;
54384;SDS011;40284;52.878;5.998;2022-07-23T06:08:32;6.75;;;3.22;;
54384;SDS011;40284;52.878;5.998;2022-07-23T06:10:58;8.05;;;3.10;;
54384;SDS011;40284;52.878;5.998;2022-07-23T06:13:24;5.32;;;3.85;;
54384;SDS011;40284;52.878;5.998;2022-07-23T06:15:50;5.78;;;2.75;;
54384;SDS011;40284;52.878;5.998;2022-07-23T06:18:16;8.98;;;2.72;;
54384;SDS011;40284;52.878;5.998;2022-07-23T06:20:42;6.38;;;3.83;;
54384;SDS011;40284;52.878;5.998;2022-07-23T06:23:08;6.90;;;4.05;;
54384;SDS011;40284;52.878;5.998;2022-07-23T06:25:35;6.03;;;4.07;;
54384;SDS011;40284;52.878;5.998;2022-07-23T06:28:01;5.32;;;2.40;;
54384;SDS011;40284;52.878;5.998;2022-07-23T06:30:27;7.78;;;2.13;;
54384;SDS011;40284;52.878;5.998;2022-07-23T06:32:53;10.25;;;2.58;;
54384;SDS011;40284;52.878;5.998;2022-07-23T06:35:19;3.95;;;2.35;;
54384;SDS011;40284;52.878;5.998;2022-07-23T06:37:45;4.35;;;2.08;;
54384;SDS011;40284;52.878;5.998;2022-07-23T06:40:11;4.63;;;2.40;;
54384;SDS011;40284;52.878;5.998;2022-07-23T06:42:38;6.03;;;2.53;;
54384;SDS011;40284;52.878;5.998;2022-07-23T06:45:07;3.88;;;1.63;;
54384;SDS011;40284;52.878;5.998;2022-07-23T06:47:33;5.93;;;1.77;;
54384;SDS011;40284;52.878;5.998;2022-07-23T06:49:59;3.05;;;1.35;;
54384;SDS011;40284;52.878;5.998;2022-07-23T06:52:25;3.63;;;1.15;;
54384;SDS011;40284;52.878;5.998;2022-07-23T06:54:51;4.15;;;1.45;;
54384;SDS011;40284;52.878;5.998;2022-07-23T06:57:18;4.32;;;1.00;;
54384;SDS011;40284;52.878;5.998;2022-07-23T06:59:44;4.30;;;1.20;;
54384;SDS011;40284;52.878;5.998;2022-07-23T07:02:10;3.42;;;1.17;;
54384;SDS011;40284;52.878;5.998;2022-07-23T07:04:36;5.30;;;1.17;;
54384;SDS011;40284;52.878;5.998;2022-07-23T07:07:02;2.90;;;1.27;;
54384;SDS011;40284;52.878;5.998;2022-07-23T07:09:28;3.50;;;1.40;;
54384;SDS011;40284;52.878;5.998;2022-07-23T07:11:54;1.65;;;1.00;;
54384;SDS011;40284;52.878;5.998;2022-07-23T07:14:21;1.77;;;1.10;;
54384;SDS011;40284;52.878;5.998;2022-07-23T07:16:47;2.40;;;0.82;;
54384;SDS011;40284;52.878;5.998;2022-07-23T07:19:13;1.60;;;0.70;;
54384;SDS011;40284;52.878;5.998;2022-07-23T07:21:40;1.35;;;1.13;;
54384;SDS011;40284;52.878;5.998;2022-07-23T07:24:06;1.33;;;0.70;;
54384;SDS011;40284;52.878;5.998;2022-07-23T07:26:32;1.67;;;0.57;;
54384;SDS011;40284;52.878;5.998;2022-07-23T07:28:58;1.40;;;0.70;;
54384;SDS011;40284;52.878;5.998;2022-07-23T07:31:24;2.50;;;1.05;;
54384;SDS011;40284;52.878;5.998;2022-07-23T07:33:50;1.92;;;0.93;;
54384;SDS011;40284;52.878;5.998;2022-07-23T07:36:16;1.83;;;1.02;;
54384;SDS011;40284;52.878;5.998;2022-07-23T07:38:42;2.25;;;1.23;;
54384;SDS011;40284;52.878;5.998;2022-07-23T07:41:08;4.78;;;0.82;;
54384;SDS011;40284;52.878;5.998;2022-07-23T07:43:35;2.85;;;0.70;;
54384;SDS011;40284;52.878;5.998;2022-07-23T07:46:02;2.67;;;1.00;;
54384;SDS011;40284;52.878;5.998;2022-07-23T07:48:28;2.05;;;0.80;;
54384;SDS011;40284;52.878;5.998;2022-07-23T07:50:54;1.05;;;0.90;;
54384;SDS011;40284;52.878;5.998;2022-07-23T07:53:20;1.15;;;0.70;;
54384;SDS011;40284;52.878;5.998;2022-07-23T07:55:46;2.83;;;0.73;;
54384;SDS011;40284;52.878;5.998;2022-07-23T07:58:12;2.20;;;0.82;;
54384;SDS011;40284;52.878;5.998;2022-07-23T08:00:39;4.03;;;0.80;;
54384;SDS011;40284;52.878;5.998;2022-07-23T08:03:05;1.52;;;0.65;;
54384;SDS011;40284;52.878;5.998;2022-07-23T08:05:31;1.92;;;0.70;;
54384;SDS011;40284;52.878;5.998;2022-07-23T08:07:57;2.60;;;0.80;;
54384;SDS011;40284;52.878;5.998;2022-07-23T08:10:24;2.05;;;0.70;;
54384;SDS011;40284;52.878;5.998;2022-07-23T08:12:51;2.05;;;0.80;;
54384;SDS011;40284;52.878;5.998;2022-07-23T08:15:18;2.63;;;0.80;;
54384;SDS011;40284;52.878;5.998;2022-07-23T08:17:45;2.08;;;0.68;;
54384;SDS011;40284;52.878;5.998;2022-07-23T08:20:12;3.45;;;0.85;;
54384;SDS011;40284;52.878;5.998;2022-07-23T08:22:42;2.63;;;1.17;;
54384;SDS011;40284;52.878;5.998;2022-07-23T08:25:09;2.42;;;1.52;;
54384;SDS011;40284;52.878;5.998;2022-07-23T08:27:35;1.88;;;0.80;;
54384;SDS011;40284;52.878;5.998;2022-07-23T08:30:01;4.05;;;1.60;;
54384;SDS011;40284;52.878;5.998;2022-07-23T08:32:27;2.10;;;1.00;;
54384;SDS011;40284;52.878;5.998;2022-07-23T08:34:53;1.08;;;0.80;;
54384;SDS011;40284;52.878;5.998;2022-07-23T08:37:19;2.00;;;1.10;;
54384;SDS011;40284;52.878;5.998;2022-07-23T08:39:45;3.80;;;0.95;;
54384;SDS011;40284;52.878;5.998;2022-07-23T08:42:13;3.95;;;1.10;;
54384;SDS011;40284;52.878;5.998;2022-07-23T08:44:41;1.92;;;0.80;;
54384;SDS011;40284;52.878;5.998;2022-07-23T08:47:08;3.20;;;1.00;;
54384;SDS011;40284;52.878;5.998;2022-07-23T08:49:34;1.95;;;0.80;;
54384;SDS011;40284;52.878;5.998;2022-07-23T08:52:01;2.00;;;0.75;;
54384;SDS011;40284;52.878;5.998;2022-07-23T08:54:27;1.92;;;1.00;;
54384;SDS011;40284;52.878;5.998;2022-07-23T08:56:53;2.22;;;1.00;;
54384;SDS011;40284;52.878;5.998;2022-07-23T08:59:19;4.22;;;1.23;;
54384;SDS011;40284;52.878;5.998;2022-07-23T09:01:45;2.15;;;0.88;;
54384;SDS011;40284;52.878;5.998;2022-07-23T09:04:11;1.52;;;0.93;;
54384;SDS011;40284;52.878;5.998;2022-07-23T09:06:40;2.30;;;1.05;;
54384;SDS011;40284;52.878;5.998;2022-07-23T09:09:16;2.08;;;1.00;;
54384;SDS011;40284;52.878;5.998;2022-07-23T09:11:45;2.78;;;0.93;;
54384;SDS011;40284;52.878;5.998;2022-07-23T09:14:11;2.30;;;1.00;;
54384;SDS011;40284;52.878;5.998;2022-07-23T09:16:38;2.10;;;0.88;;
54384;SDS011;40284;52.878;5.998;2022-07-23T09:19:05;2.15;;;1.10;;
54384;SDS011;40284;52.878;5.998;2022-07-23T09:21:32;3.70;;;1.30;;
54384;SDS011;40284;52.878;5.998;2022-07-23T09:23:59;4.28;;;1.10;;
54384;SDS011;40284;52.878;5.998;2022-07-23T09:26:29;1.92;;;1.10;;
54384;SDS011;40284;52.878;5.998;2022-07-23T09:29:11;2.30;;;0.90;;
54384;SDS011;40284;52.878;5.998;2022-07-23T09:31:51;6.30;;;1.20;;
54384;SDS011;40284;52.878;5.998;2022-07-23T09:36:43;1.88;;;1.10;;
54384;SDS011;40284;52.878;5.998;2022-07-23T09:39:10;2.97;;;1.13;;
54384;SDS011;40284;52.878;5.998;2022-07-23T09:41:37;2.80;;;1.20;;
54384;SDS011;40284;52.878;5.998;2022-07-23T09:44:14;3.95;;;1.30;;
54384;SDS011;40284;52.878;5.998;2022-07-23T09:46:41;5.70;;;0.90;;
54384;SDS011;40284;52.878;5.998;2022-07-23T09:49:26;2.08;;;1.00;;
54384;SDS011;40284;52.878;5.998;2022-07-23T09:51:55;1.75;;;0.80;;
54384;SDS011;40284;52.878;5.998;2022-07-23T09:56:50;2.08;;;1.00;;
54384;SDS011;40284;52.878;5.998;2022-07-23T09:59:16;2.00;;;0.98;;
54384;SDS011;40284;52.878;5.998;2022-07-23T10:01:44;1.92;;;1.00;;
54384;SDS011;40284;52.878;5.998;2022-07-23T10:04:11;2.63;;;1.45;;
54384;SDS011;40284;52.878;5.998;2022-07-23T10:06:39;4.80;;;1.38;;
54384;SDS011;40284;52.878;5.998;2022-07-23T10:09:05;1.85;;;1.13;;
54384;SDS011;40284;52.878;5.998;2022-07-23T10:11:33;3.25;;;1.20;;
54384;SDS011;40284;52.878;5.998;2022-07-23T10:14:00;2.33;;;1.20;;
54384;SDS011;40284;52.878;5.998;2022-07-23T10:16:28;1.83;;;0.90;;
54384;SDS011;40284;52.878;5.998;2022-07-23T10:18:55;3.20;;;1.30;;
54384;SDS011;40284;52.878;5.998;2022-07-23T10:21:27;1.60;;;0.93;;
54384;SDS011;40284;52.878;5.998;2022-07-23T10:32:04;3.35;;;1.20;;
54384;SDS011;40284;52.878;5.998;2022-07-23T10:34:55;1.77;;;1.05;;
54384;SDS011;40284;52.878;5.998;2022-07-23T10:37:36;3.90;;;1.48;;
54384;SDS011;40284;52.878;5.998;2022-07-23T10:42:33;2.55;;;1.13;;
54384;SDS011;40284;52.878;5.998;2022-07-23T10:44:59;5.82;;;1.40;;
54384;SDS011;40284;52.878;5.998;2022-07-23T10:47:29;3.80;;;1.30;;
54384;SDS011;40284;52.878;5.998;2022-07-23T10:50:22;3.40;;;1.02;;
54384;SDS011;40284;52.878;5.998;2022-07-23T10:57:48;3.53;;;1.02;;
54384;SDS011;40284;52.878;5.998;2022-07-23T11:00:15;5.70;;;1.45;;
54384;SDS011;40284;52.878;5.998;2022-07-23T11:02:44;2.63;;;1.27;;
54384;SDS011;40284;52.878;5.998;2022-07-23T11:05:12;4.00;;;1.50;;
54384;SDS011;40284;52.878;5.998;2022-07-23T11:21:51;3.00;;;1.35;;
54384;SDS011;40284;52.878;5.998;2022-07-23T11:32:05;3.95;;;1.48;;
54384;SDS011;40284;52.878;5.998;2022-07-23T11:34:32;3.30;;;1.40;;
54384;SDS011;40284;52.878;5.998;2022-07-23T11:36:58;3.17;;;1.40;;
54384;SDS011;40284;52.878;5.998;2022-07-23T11:39:26;2.15;;;1.10;;
54384;SDS011;40284;52.878;5.998;2022-07-23T11:41:53;3.83;;;1.88;;
54384;SDS011;40284;52.878;5.998;2022-07-23T11:47:08;3.47;;;1.25;;
54384;SDS011;40284;52.878;5.998;2022-07-23T11:49:34;2.88;;;1.50;;
54384;SDS011;40284;52.878;5.998;2022-07-23T11:52:13;2.17;;;1.30;;
54384;SDS011;40284;52.878;5.998;2022-07-23T11:54:56;3.10;;;1.60;;
54384;SDS011;40284;52.878;5.998;2022-07-23T11:57:40;5.57;;;2.00;;
54384;SDS011;40284;52.878;5.998;2022-07-23T12:00:08;2.10;;;1.60;;
54384;SDS011;40284;52.878;5.998;2022-07-23T12:02:42;2.50;;;1.65;;
54384;SDS011;40284;52.878;5.998;2022-07-23T12:07:42;6.03;;;1.88;;
54384;SDS011;40284;52.878;5.998;2022-07-23T12:10:13;3.70;;;2.03;;
54384;SDS011;40284;52.878;5.998;2022-07-23T12:12:43;6.72;;;1.80;;
54384;SDS011;40284;52.878;5.998;2022-07-23T12:15:21;3.45;;;1.40;;
54384;SDS011;40284;52.878;5.998;2022-07-23T12:17:48;2.67;;;1.50;;
54384;SDS011;40284;52.878;5.998;2022-07-23T12:20:16;3.20;;;1.60;;
54384;SDS011;40284;52.878;5.998;2022-07-23T12:22:46;3.30;;;1.60;;
54384;SDS011;40284;52.878;5.998;2022-07-23T12:25:13;3.10;;;1.50;;
54384;SDS011;40284;52.878;5.998;2022-07-23T12:27:40;3.40;;;1.95;;
54384;SDS011;40284;52.878;5.998;2022-07-23T12:32:43;2.90;;;1.80;;
54384;SDS011;40284;52.878;5.998;2022-07-23T12:35:10;2.67;;;1.60;;
54384;SDS011;40284;52.878;5.998;2022-07-23T12:37:37;3.55;;;1.80;;
54384;SDS011;40284;52.878;5.998;2022-07-23T12:42:49;5.22;;;1.88;;
54384;SDS011;40284;52.878;5.998;2022-07-23T12:45:16;2.13;;;1.85;;
54384;SDS011;40284;52.878;5.998;2022-07-23T12:50:31;3.65;;;2.25;;
54384;SDS011;40284;52.878;5.998;2022-07-23T12:53:17;3.00;;;1.63;;
54384;SDS011;40284;52.878;5.998;2022-07-23T12:55:45;2.60;;;1.73;;
54384;SDS011;40284;52.878;5.998;2022-07-23T12:58:13;3.25;;;1.73;;
54384;SDS011;40284;52.878;5.998;2022-07-23T13:00:53;4.00;;;1.63;;
54384;SDS011;40284;52.878;5.998;2022-07-23T13:03:26;3.13;;;1.80;;
54384;SDS011;40284;52.878;5.998;2022-07-23T13:05:52;4.05;;;1.70;;
54384;SDS011;40284;52.878;5.998;2022-07-23T13:08:18;4.00;;;2.00;;
54384;SDS011;40284;52.878;5.998;2022-07-23T13:10:44;3.05;;;1.70;;
54384;SDS011;40284;52.878;5.998;2022-07-23T13:13:16;2.97;;;1.83;;
54384;SDS011;40284;52.878;5.998;2022-07-23T13:15:43;2.95;;;1.65;;
54384;SDS011;40284;52.878;5.998;2022-07-23T13:18:09;2.63;;;2.00;;
54384;SDS011;40284;52.878;5.998;2022-07-23T13:20:35;2.30;;;1.60;;
54384;SDS011;40284;52.878;5.998;2022-07-23T13:23:03;1.70;;;1.40;;
54384;SDS011;40284;52.878;5.998;2022-07-23T13:25:29;3.83;;;1.67;;
54384;SDS011;40284;52.878;5.998;2022-07-23T13:27:55;3.78;;;1.90;;
54384;SDS011;40284;52.878;5.998;2022-07-23T13:30:21;3.30;;;1.90;;
54384;SDS011;40284;52.878;5.998;2022-07-23T13:32:48;2.85;;;1.25;;
54384;SDS011;40284;52.878;5.998;2022-07-23T13:35:14;4.30;;;1.60;;
54384;SDS011;40284;52.878;5.998;2022-07-23T13:37:40;3.20;;;1.52;;
54384;SDS011;40284;52.878;5.998;2022-07-23T13:40:07;2.35;;;1.30;;
54384;SDS011;40284;52.878;5.998;2022-07-23T13:42:33;2.10;;;1.70;;
54384;SDS011;40284;52.878;5.998;2022-07-23T13:44:59;3.00;;;1.63;;
54384;SDS011;40284;52.878;5.998;2022-07-23T13:47:25;2.72;;;1.60;;
54384;SDS011;40284;52.878;5.998;2022-07-23T13:49:51;5.55;;;1.92;;
54384;SDS011;40284;52.878;5.998;2022-07-23T13:52:18;3.75;;;1.83;;
54384;SDS011;40284;52.878;5.998;2022-07-23T13:54:44;1.75;;;1.58;;
54384;SDS011;40284;52.878;5.998;2022-07-23T13:57:10;2.60;;;1.73;;
54384;SDS011;40284;52.878;5.998;2022-07-23T13:59:36;106.45;;;11.82;;
54384;SDS011;40284;52.878;5.998;2022-07-23T14:02:02;34.78;;;4.95;;
54384;SDS011;40284;52.878;5.998;2022-07-23T14:04:29;3.40;;;2.05;;
54384;SDS011;40284;52.878;5.998;2022-07-23T14:06:55;8.80;;;2.05;;
54384;SDS011;40284;52.878;5.998;2022-07-23T14:09:21;4.10;;;1.45;;
54384;SDS011;40284;52.878;5.998;2022-07-23T14:11:47;2.05;;;1.30;;
54384;SDS011;40284;52.878;5.998;2022-07-23T14:14:15;2.00;;;1.30;;
54384;SDS011;40284;52.878;5.998;2022-07-23T14:16:41;1.88;;;1.23;;
54384;SDS011;40284;52.878;5.998;2022-07-23T14:19:07;3.05;;;1.35;;
54384;SDS011;40284;52.878;5.998;2022-07-23T14:21:33;3.15;;;1.70;;
54384;SDS011;40284;52.878;5.998;2022-07-23T14:23:59;2.45;;;1.40;;
54384;SDS011;40284;52.878;5.998;2022-07-23T14:26:25;6.32;;;1.48;;
54384;SDS011;40284;52.878;5.998;2022-07-23T14:28:52;2.65;;;1.40;;
54384;SDS011;40284;52.878;5.998;2022-07-23T14:31:18;2.03;;;1.30;;
54384;SDS011;40284;52.878;5.998;2022-07-23T14:33:44;3.78;;;1.65;;
54384;SDS011;40284;52.878;5.998;2022-07-23T14:36:10;2.72;;;1.60;;
54384;SDS011;40284;52.878;5.998;2022-07-23T14:38:40;4.43;;;1.95;;
54384;SDS011;40284;52.878;5.998;2022-07-23T14:41:07;3.88;;;1.75;;
54384;SDS011;40284;52.878;5.998;2022-07-23T14:43:34;4.88;;;1.70;;
54384;SDS011;40284;52.878;5.998;2022-07-23T14:46:00;3.85;;;2.00;;
54384;SDS011;40284;52.878;5.998;2022-07-23T14:48:27;3.42;;;1.27;;
54384;SDS011;40284;52.878;5.998;2022-07-23T14:50:53;3.53;;;1.45;;
54384;SDS011;40284;52.878;5.998;2022-07-23T14:53:19;3.13;;;1.40;;
54384;SDS011;40284;52.878;5.998;2022-07-23T14:55:45;2.90;;;1.70;;
54384;SDS011;40284;52.878;5.998;2022-07-23T14:58:11;1.83;;;1.20;;
54384;SDS011;40284;52.878;5.998;2022-07-23T15:00:37;2.92;;;1.48;;
54384;SDS011;40284;52.878;5.998;2022-07-23T15:03:03;2.92;;;1.73;;
54384;SDS011;40284;52.878;5.998;2022-07-23T15:05:29;3.47;;;1.40;;
54384;SDS011;40284;52.878;5.998;2022-07-23T15:07:55;4.85;;;1.90;;
54384;SDS011;40284;52.878;5.998;2022-07-23T15:10:22;3.05;;;1.70;;
54384;SDS011;40284;52.878;5.998;2022-07-23T15:12:48;8.98;;;1.80;;
54384;SDS011;40284;52.878;5.998;2022-07-23T15:15:14;3.10;;;1.88;;
54384;SDS011;40284;52.878;5.998;2022-07-23T15:17:40;3.38;;;1.85;;
54384;SDS011;40284;52.878;5.998;2022-07-23T15:20:06;4.05;;;1.80;;
54384;SDS011;40284;52.878;5.998;2022-07-23T15:22:33;5.95;;;1.90;;
54384;SDS011;40284;52.878;5.998;2022-07-23T15:24:59;4.72;;;1.95;;
54384;SDS011;40284;52.878;5.998;2022-07-23T15:27:25;7.00;;;2.90;;
54384;SDS011;40284;52.878;5.998;2022-07-23T15:29:51;7.78;;;3.65;;
54384;SDS011;40284;52.878;5.998;2022-07-23T15:32:17;4.35;;;1.80;;
54384;SDS011;40284;52.878;5.998;2022-07-23T15:34:43;6.50;;;1.52;;
54384;SDS011;40284;52.878;5.998;2022-07-23T15:37:09;6.28;;;1.85;;
54384;SDS011;40284;52.878;5.998;2022-07-23T15:39:35;5.53;;;1.80;;